Yale, OK (74085)

6:23 AM CST on February 06, 2016 (GMT -0600)
Western Heights | | Change Station
CLOSE
Current Station
Personal Weather Station
Location: Yale, OK
Elevation: 886 ft
Nearby Weather Stations

Elev 886 ft 36.12 °N, 96.71 °W | Updated 4 minutes ago

Mostly Cloudy
Mostly Cloudy
36.0 °F
Feels Like 36 °F
N
1.0
Wind Variable Wind from NE
Gusts 3.0 mph

Today
High -- | Low -- °F
--% Chance of Precip.
Yesterday
High -- | Low -- °F
Precip. -- in
Pressure 30.30 in
Visibility 10.0 miles
Clouds Scattered Clouds 4000 ft
Windchill 36 °F
Dew Point 34 °F
Humidity 91%
Rainfall Not available.
Snow Depth Not available.
7:23 AM 5:58 PM
Waning Crescent, 6% visible
METAR KCUH 061215Z AUTO 00000KT 10SM SCT040 01/00 A3030 RMK AO2 T00090000
Pressure 30.30 in
Visibility 10.0 miles
Clouds Scattered Clouds 4000 ft
Windchill 36 °F
Dew Point 34 °F
Humidity 91%
Rainfall Not available.
Snow Depth Not available.
7:23 AM 5:58 PM
Waning Crescent, 6% visible
METAR KCUH 061215Z AUTO 00000KT 10SM SCT040 01/00 A3030 RMK AO2 T00090000

10-Day Weather Forecast

Almanac

Astronomy

Feb. 06, 2016 Rise Set
Actual Time
Civil Twilight
Nautical Twilight
Astronomical Twilight
Moon
Length of Visible Light
Length of Day
Tomorrow will be .
, % of the Moon is Illuminated

Today's Extremes

State Highs State Lows

Community

WunderPhotos

Upload Photos

1,890,944 photos uploaded!

WunderBlog® & News

Nearby

Air Quality

  Air Quality AQ Index Pollutant
Not available.

Snow Depth

Station Depth Elevation

Earthquake Activity

City Distance Mag. Time & Date
Minimum magnitude displayed is 2.5.

Coastal Water Temperatures

Place Temperature

Stations

Nearby Weather Stations

Station Location Temp. Windchill Dew Point Humidity Wind Precip. Elev Updated Type
                   

Watches & Warnings

There are currently no watches in effect.